Time;durP1;ratioP1;P1;durP2;ratioP2;P2;SDS_P1;SDS_P2;PMS_P1;PMS_P2;Temp;Humidity;BMP_temperature;BMP_pressure;BME280_temperature;BME280_humidity;BME280_pressure;Samples;Min_cycle;Max_cycle;Signal;HPM_P1;HPM_P2
2022/06/04 00:00:46;;;;;;;5.00;4.10;;;;;;;11.57;76.50;99567.70;104598;1272;63097;-24
2022/06/04 00:03:14;;;;;;;7.00;4.50;;;;;;;11.25;76.44;99565.60;104737;1274;76648;-23
2022/06/04 00:05:45;;;;;;;6.90;2.50;;;;;;;10.93;77.80;99561.42;104715;1274;75865;-23
2022/06/04 00:08:13;;;;;;;3.90;2.80;;;;;;;11.24;78.74;99562.04;104687;1274;75733;-24
2022/06/04 00:16:18;;;;;;;17.90;5.50;;;;;;;11.44;77.80;99553.21;104668;1274;75396;-25
2022/06/04 00:18:46;;;;;;;8.50;4.70;;;;;;;11.18;79.19;99559.04;104696;1274;76997;-26
2022/06/04 00:21:20;;;;;;;7.50;4.80;;;;;;;10.92;77.62;99553.84;104784;1274;74297;-26
2022/06/04 00:23:47;;;;;;;7.50;2.90;;;;;;;10.70;77.43;99556.83;104607;1274;63767;-26
2022/06/04 00:26:15;;;;;;;6.00;3.10;;;;;;;11.06;77.42;99550.19;104704;1274;62014;-26
2022/06/04 00:28:42;;;;;;;6.30;3.90;;;;;;;11.56;76.62;99545.20;104629;1274;75162;-25
2022/06/04 00:31:09;;;;;;;4.80;3.60;;;;;;;11.62;76.55;99541.42;105005;1274;75658;-26
2022/06/04 00:33:37;;;;;;;6.70;3.70;;;;;;;11.47;76.60;99536.35;105004;1274;75478;-23
2022/06/04 00:36:04;;;;;;;11.80;4.20;;;;;;;11.22;77.45;99536.09;104891;1274;61820;-25
2022/06/04 00:38:32;;;;;;;9.10;4.40;;;;;;;10.99;77.72;99533.20;105116;1274;63117;-25
2022/06/04 00:41:34;;;;;;;4.10;2.40;;;;;;;10.77;77.89;99530.96;104815;1273;75406;-26
2022/06/04 00:44:04;;;;;;;4.90;3.50;;;;;;;11.27;77.55;99536.09;104686;1274;77543;-27
2022/06/04 00:46:41;;;;;;;5.00;3.90;;;;;;;11.64;76.09;99534.83;104607;1274;74793;-26
2022/06/04 00:49:09;;;;;;;7.90;3.50;;;;;;;11.56;75.65;99533.39;104588;1273;61766;-26
2022/06/04 00:51:37;;;;;;;8.70;3.70;;;;;;;11.31;75.96;99529.72;104646;1274;63063;-26
2022/06/04 00:54:04;;;;;;;9.40;4.60;;;;;;;11.03;76.51;99530.63;104630;1273;76576;-26
2022/06/04 00:56:50;;;;;;;4.90;4.20;;;;;;;10.76;77.23;99528.27;104685;1274;76029;-26
2022/06/04 00:59:27;;;;;;;8.70;2.50;;;;;;;10.54;77.44;99528.14;104713;1274;73328;-26
2022/06/04 01:02:30;;;;;;;7.60;3.10;;;;;;;11.05;77.38;99529.43;104595;1274;61875;-26
2022/06/04 01:05:00;;;;;;;7.60;4.50;;;;;;;11.56;76.11;99531.11;104301;1274;62982;-23
2022/06/04 01:07:56;;;;;;;8.20;3.90;;;;;;;11.47;76.01;99529.67;104611;1274;75549;-25
2022/06/04 01:10:48;;;;;;;7.30;4.00;;;;;;;11.20;76.40;99526.56;104632;1274;77084;-26
2022/06/04 01:13:27;;;;;;;5.30;4.80;;;;;;;10.88;77.10;99526.70;104595;1274;73736;-25
2022/06/04 01:15:57;;;;;;;11.00;5.50;;;;;;;10.57;77.47;99526.86;104802;1273;63623;-26
2022/06/04 01:18:25;;;;;;;6.70;2.80;;;;;;;10.36;77.87;99522.52;104881;1274;63181;-26
2022/06/04 01:21:00;;;;;;;5.10;3.80;;;;;;;10.77;77.72;99519.20;104797;1273;75803;-26
2022/06/04 01:23:49;;;;;;;8.80;5.10;;;;;;;11.29;76.30;99522.44;104855;1274;75938;-23
2022/06/04 01:26:34;;;;;;;7.50;4.80;;;;;;;11.28;75.92;99522.83;104765;1274;73333;-23
2022/06/04 01:29:05;;;;;;;8.40;4.20;;;;;;;11.00;76.09;99522.16;104676;1274;61799;-23
2022/06/04 01:31:40;;;;;;;12.80;4.80;;;;;;;10.70;76.23;99521.77;104405;1274;63029;-23
2022/06/04 01:34:09;;;;;;;5.30;4.70;;;;;;;10.42;76.70;99524.67;104691;1274;76469;-24
2022/06/04 01:36:50;;;;;;;3.70;2.60;;;;;;;10.20;77.54;99529.19;104762;1274;76982;-25
2022/06/04 01:39:21;;;;;;;8.00;3.20;;;;;;;10.61;77.65;99519.11;104642;1274;75412;-23
2022/06/04 01:41:51;;;;;;;10.40;5.00;;;;;;;11.09;76.24;99518.87;104407;1273;62049;-23
2022/06/04 01:44:21;;;;;;;11.30;4.50;;;;;;;11.10;76.00;99515.34;104635;1273;63161;-24
2022/06/04 01:46:54;;;;;;;12.60;4.20;;;;;;;10.86;76.12;99518.33;104677;1274;76550;-25
2022/06/04 01:49:29;;;;;;;13.20;4.80;;;;;;;10.53;76.16;99518.48;104670;1274;76082;-23
2022/06/04 01:52:02;;;;;;;9.20;4.90;;;;;;;10.25;76.63;99520.48;104633;1274;74535;-23
2022/06/04 01:54:33;;;;;;;24.10;3.50;;;;;;;10.07;77.79;99522.16;104578;1274;63013;-23
2022/06/04 01:57:12;;;;;;;8.30;3.80;;;;;;;10.48;78.33;99521.08;104673;1274;63121;-26
2022/06/04 01:59:45;;;;;;;15.00;5.10;;;;;;;11.01;76.92;99525.00;104722;1274;76555;-26
2022/06/04 02:02:18;;;;;;;8.00;3.90;;;;;;;11.05;76.23;99521.73;104869;1274;77015;-26
2022/06/04 02:04:48;;;;;;;10.60;4.60;;;;;;;10.87;76.07;99518.74;104831;1274;74452;-26
2022/06/04 02:07:30;;;;;;;8.50;4.20;;;;;;;10.61;75.88;99517.02;104645;1274;62443;-26
2022/06/04 02:10:06;;;;;;;8.30;4.20;;;;;;;10.29;76.28;99516.24;104632;1274;61166;-25
2022/06/04 02:12:33;;;;;;;14.50;2.60;;;;;;;10.03;77.22;99514.66;104475;1274;74375;-25
2022/06/04 02:15:04;;;;;;;9.20;2.60;;;;;;;10.40;77.52;99513.70;104569;1273;76989;-26
2022/06/04 02:17:32;;;;;;;6.00;3.30;;;;;;;10.92;76.60;99518.42;104639;1274;73758;-26
2022/06/04 02:19:59;;;;;;;7.90;3.50;;;;;;;11.00;76.64;99517.45;104665;1274;62022;-26
2022/06/04 02:22:27;;;;;;;7.30;3.80;;;;;;;10.93;76.66;99520.07;104621;1274;63206;-26
2022/06/04 02:24:54;;;;;;;8.40;4.00;;;;;;;10.92;76.90;99520.16;104640;1274;74341;-26
2022/06/04 02:27:21;;;;;;;6.40;3.80;;;;;;;10.95;76.48;99522.34;104659;1273;77067;-26
2022/06/04 02:29:49;;;;;;;6.70;2.50;;;;;;;11.03;75.82;99520.02;104748;1274;74034;-26
2022/06/04 02:32:27;;;;;;;10.80;3.20;;;;;;;11.52;75.43;99521.70;104633;1274;61960;-26
2022/06/04 02:35:11;;;;;;;5.70;3.70;;;;;;;12.12;73.36;99519.95;104791;1274;61743;-26
2022/06/04 02:37:47;;;;;;;7.60;3.80;;;;;;;12.39;72.87;99528.60;104749;1274;76728;-23
2022/06/04 02:40:26;;;;;;;10.80;3.70;;;;;;;12.50;72.07;99523.05;104711;1274;77048;-24
2022/06/04 02:43:20;;;;;;;7.00;4.30;;;;;;;12.58;71.45;99522.20;104719;1274;75235;-25
2022/06/04 02:46:17;;;;;;;8.00;4.60;;;;;;;12.63;70.38;99526.27;104623;1273;62817;-26
2022/06/04 02:48:59;;;;;;;12.00;3.60;;;;;;;12.66;70.47;99530.23;104604;1274;63045;-25
2022/06/04 02:51:42;;;;;;;10.80;2.70;;;;;;;12.76;70.15;99540.89;104597;1273;76128;-25
2022/06/04 02:54:24;;;;;;;4.10;3.20;;;;;;;13.62;69.89;99540.70;104612;1274;76982;-25
2022/06/04 02:56:52;;;;;;;12.20;5.10;;;;;;;14.64;67.87;99546.48;104577;1273;75377;-25
2022/06/04 02:59:20;;;;;;;8.80;5.00;;;;;;;15.03;66.65;99547.85;104579;1274;62244;-25
2022/06/04 03:01:48;;;;;;;18.60;5.30;;;;;;;15.20;65.18;99544.23;104806;1274;62162;-25
2022/06/04 03:04:16;;;;;;;13.10;6.80;;;;;;;15.31;65.14;99545.65;104725;1274;74949;-25
2022/06/04 03:06:43;;;;;;;12.20;7.50;;;;;;;15.31;64.63;99543.66;104660;1274;75977;-25
2022/06/04 03:09:13;;;;;;;20.90;11.80;;;;;;;15.22;64.72;99542.98;104686;1272;74064;-25
2022/06/04 03:11:45;;;;;;;24.10;12.10;;;;;;;15.16;64.61;99539.35;104636;1274;62062;-26
2022/06/04 03:14:13;;;;;;;14.80;8.50;;;;;;;15.16;65.12;99536.14;104575;1274;62070;-25
2022/06/04 03:16:42;;;;;;;17.70;10.60;;;;;;;15.16;64.55;99536.87;104635;1274;76560;-25
2022/06/04 03:19:10;;;;;;;21.80;7.40;;;;;;;15.17;65.23;99537.27;104595;1273;76084;-25
2022/06/04 03:21:39;;;;;;;16.60;6.20;;;;;;;15.93;64.75;99536.78;104668;1274;74388;-25
2022/06/04 03:24:07;;;;;;;15.80;6.10;;;;;;;16.83;62.66;99532.66;104673;1274;61980;-25
2022/06/04 03:26:35;;;;;;;24.20;5.90;;;;;;;17.29;61.50;99527.59;104714;1273;62066;-25
2022/06/04 03:29:02;;;;;;;21.80;10.50;;;;;;;17.47;60.88;99525.23;104690;1274;75251;-25
2022/06/04 03:31:30;;;;;;;21.90;10.60;;;;;;;17.47;60.49;99522.73;104664;1274;75984;-25
2022/06/04 03:33:57;;;;;;;20.00;9.00;;;;;;;17.39;60.43;99518.52;104606;1274;75322;-25
2022/06/04 03:36:25;;;;;;;10.20;6.60;;;;;;;17.32;60.35;99511.52;104574;1274;63507;-25
2022/06/04 03:39:00;;;;;;;13.30;5.00;;;;;;;17.28;60.64;99509.23;104719;1274;61937;-25
2022/06/04 03:41:27;;;;;;;9.00;5.90;;;;;;;17.35;60.57;99508.70;104667;1274;76562;-25
2022/06/04 03:43:55;;;;;;;20.20;12.60;;;;;;;17.43;60.89;99508.41;104661;1274;75891;-25
2022/06/04 03:46:26;;;;;;;27.10;14.10;;;;;;;17.48;60.06;99503.65;104609;1274;75107;-25
2022/06/04 03:48:54;;;;;;;29.50;17.60;;;;;;;17.55;60.10;99505.05;104601;1274;63098;-25
2022/06/04 03:51:21;;;;;;;23.30;16.40;;;;;;;17.64;59.50;99505.32;104670;1274;61122;-25
2022/06/04 03:53:49;;;;;;;22.10;16.10;;;;;;;17.71;59.47;99506.45;104702;1274;75864;-25
2022/06/04 03:56:16;;;;;;;21.20;14.40;;;;;;;17.79;59.51;99505.42;104573;1274;76963;-25
2022/06/04 03:58:43;;;;;;;22.80;16.00;;;;;;;17.96;59.30;99503.64;104635;1274;75188;-25
2022/06/04 04:01:21;;;;;;;22.10;15.50;;;;;;;18.12;58.83;99507.64;104650;1274;62234;-25
2022/06/04 04:03:49;;;;;;;19.60;12.00;;;;;;;18.27;57.98;99502.73;104874;1274;63031;-25
2022/06/04 04:06:22;;;;;;;19.10;11.50;;;;;;;18.38;58.33;99499.66;105033;1274;76563;-25
2022/06/04 04:08:51;;;;;;;16.90;11.50;;;;;;;18.44;58.74;99495.78;104677;1273;77132;-25
2022/06/04 04:11:20;;;;;;;19.90;11.40;;;;;;;18.52;57.95;99497.63;104431;1274;75418;-25
2022/06/04 04:13:48;;;;;;;17.50;11.00;;;;;;;18.62;57.60;99502.48;104664;1274;62029;-25
2022/06/04 04:16:15;;;;;;;17.00;8.80;;;;;;;18.69;57.96;99510.73;104680;1273;61668;-25
2022/06/04 04:18:43;;;;;;;15.70;9.70;;;;;;;18.76;58.28;99512.79;104930;1274;75435;-25
2022/06/04 04:21:12;;;;;;;13.90;7.40;;;;;;;18.85;58.33;99509.34;104872;1273;75957;-25
2022/06/04 04:23:39;;;;;;;7.40;4.90;;;;;;;18.90;58.21;99505.08;104652;1274;74352;-25
2022/06/04 04:26:07;;;;;;;4.80;4.30;;;;;;;18.86;58.15;99506.02;104673;1274;63104;-25
2022/06/04 04:28:35;;;;;;;8.10;7.30;;;;;;;18.92;58.46;99499.94;104703;1274;62951;-25
2022/06/04 04:31:09;;;;;;;9.00;5.40;;;;;;;19.00;58.29;99502.83;104659;1274;75271;-25
2022/06/04 04:33:36;;;;;;;4.90;4.50;;;;;;;19.07;57.84;99492.53;104723;1274;76063;-25
2022/06/04 04:36:04;;;;;;;4.60;4.10;;;;;;;19.14;58.08;99487.07;104639;1274;74343;-25
2022/06/04 04:38:32;;;;;;;5.20;4.80;;;;;;;19.31;57.94;99486.09;104794;1274;62009;-24
2022/06/04 04:40:59;;;;;;;6.60;5.60;;;;;;;19.51;57.78;99491.06;104605;1274;62453;-25
2022/06/04 04:43:26;;;;;;;5.60;4.80;;;;;;;19.63;57.67;99495.30;104602;1274;76606;-25
2022/06/04 04:46:04;;;;;;;5.70;3.90;;;;;;;19.81;56.49;99500.92;104616;1274;76400;-25
2022/06/04 04:48:32;;;;;;;4.10;3.70;;;;;;;19.92;56.20;99497.93;104654;1274;72413;-25
2022/06/04 04:50:59;;;;;;;4.60;3.20;;;;;;;20.07;56.08;99496.30;104697;1274;61853;-24
2022/06/04 04:53:27;;;;;;;3.60;3.20;;;;;;;20.14;55.07;99496.73;104727;1274;61801;-24
2022/06/04 04:55:55;;;;;;;3.40;3.00;;;;;;;20.12;54.78;99497.96;104586;1274;75764;-25
2022/06/04 04:58:22;;;;;;;5.30;3.40;;;;;;;20.12;54.08;99493.41;104628;1274;77053;-25
2022/06/04 05:00:50;;;;;;;7.50;4.30;;;;;;;20.10;53.90;99497.00;104621;1274;75448;-24
2022/06/04 05:03:17;;;;;;;8.00;4.70;;;;;;;20.13;54.38;99494.90;104357;1274;377946;-24
2022/06/04 05:05:44;;;;;;;7.10;4.60;;;;;;;20.28;54.58;99497.19;104603;1274;61890;-24
2022/06/04 05:08:12;;;;;;;7.50;4.30;;;;;;;20.52;53.94;99500.95;104615;1274;75491;-24
2022/06/04 05:10:39;;;;;;;6.10;4.60;;;;;;;20.77;53.57;99498.42;104646;1274;75814;-24
2022/06/04 05:13:07;;;;;;;4.80;3.00;;;;;;;20.98;52.67;99493.20;104564;1274;75479;-24
2022/06/04 05:15:34;;;;;;;5.50;3.20;;;;;;;21.14;52.50;99493.75;104673;1274;62168;-24
2022/06/04 05:18:01;;;;;;;4.30;3.30;;;;;;;21.29;51.28;99493.80;104702;1274;61830;-24
2022/06/04 05:20:29;;;;;;;3.40;3.10;;;;;;;21.52;51.13;99494.94;104648;1274;76969;-24
2022/06/04 05:22:56;;;;;;;6.40;3.10;;;;;;;21.72;50.92;99495.40;104615;1274;75757;-25
2022/06/04 05:25:23;;;;;;;3.70;2.70;;;;;;;21.84;50.67;99498.14;104655;1274;75364;-24
2022/06/04 05:27:50;;;;;;;3.60;2.80;;;;;;;22.03;50.15;99498.42;104698;1274;62136;-24
2022/06/04 05:30:18;;;;;;;3.80;2.80;;;;;;;22.17;48.47;99496.73;104598;1274;62353;-24
2022/06/04 05:32:45;;;;;;;3.80;2.80;;;;;;;22.30;48.49;99492.37;104662;1274;75497;-24
2022/06/04 05:35:12;;;;;;;5.70;2.80;;;;;;;22.41;47.35;99492.25;104699;1274;75771;-24
2022/06/04 05:37:40;;;;;;;5.00;2.70;;;;;;;22.54;47.59;99488.14;104653;1274;75140;-24
2022/06/04 05:40:08;;;;;;;3.50;2.40;;;;;;;22.74;46.76;99484.14;104622;1274;62775;-24
2022/06/04 05:42:35;;;;;;;3.10;2.50;;;;;;;22.86;45.48;99482.60;104678;1274;63053;-24
2022/06/04 05:45:03;;;;;;;2.60;2.20;;;;;;;22.90;45.26;99484.88;104518;1274;76633;-24
2022/06/04 05:47:30;;;;;;;2.80;2.30;;;;;;;22.99;45.77;99483.60;104626;1274;75316;-24
2022/06/04 05:49:58;;;;;;;3.10;2.00;;;;;;;23.12;45.28;99481.50;104709;1274;75399;-22
2022/06/04 05:52:25;;;;;;;2.20;1.80;;;;;;;23.19;45.14;99485.34;104722;1274;61963;-23
2022/06/04 05:54:52;;;;;;;5.60;2.20;;;;;;;23.35;45.27;99483.03;104564;1271;62171;-23
2022/06/04 05:57:20;;;;;;;2.80;1.70;;;;;;;23.50;44.32;99483.40;104713;1274;75483;-23
2022/06/04 05:59:49;;;;;;;5.00;1.90;;;;;;;23.56;44.14;99479.79;104697;1274;76001;-22
2022/06/04 06:02:16;;;;;;;1.90;1.80;;;;;;;23.68;44.08;99479.94;104759;1274;75366;-22
2022/06/04 06:04:44;;;;;;;4.20;2.20;;;;;;;23.83;44.82;99476.39;104546;1274;62771;-23
2022/06/04 06:07:11;;;;;;;4.90;3.30;;;;;;;23.98;43.38;99472.88;104694;1273;61835;-23
2022/06/04 06:09:39;;;;;;;3.90;2.50;;;;;;;23.99;42.57;99467.95;104712;1274;75809;-24
2022/06/04 06:12:06;;;;;;;3.40;2.20;;;;;;;24.02;43.77;99463.67;104717;1274;76043;-23
2022/06/04 06:14:34;;;;;;;6.70;3.80;;;;;;;24.16;43.07;99458.48;104745;1274;75210;-22
2022/06/04 06:17:01;;;;;;;3.90;2.00;;;;;;;24.27;42.59;99458.64;104838;1274;61772;-22
2022/06/04 06:19:28;;;;;;;4.50;1.90;;;;;;;24.36;41.14;99456.95;104988;1274;63241;-23
2022/06/04 06:21:56;;;;;;;3.30;2.30;;;;;;;24.36;40.53;99453.98;104959;1272;76339;-23
2022/06/04 06:24:23;;;;;;;2.30;1.60;;;;;;;24.36;41.38;99453.72;104699;1274;75981;-23
2022/06/04 06:29:09;;;;;;;7.00;3.50;;;;;;;24.50;41.09;99451.92;101857;1309;600583;-23
2022/06/04 06:31:36;;;;;;;5.90;2.60;;;;;;;24.59;40.25;99452.52;104395;1283;62245;-23
2022/06/04 06:34:03;;;;;;;2.50;2.10;;;;;;;24.58;40.79;99451.55;104435;1282;63047;-22
2022/06/04 06:36:31;;;;;;;3.30;1.80;;;;;;;24.58;40.33;99445.27;104426;1283;74949;-23
2022/06/04 06:38:58;;;;;;;4.40;1.90;;;;;;;24.61;39.70;99446.29;104448;1281;76084;-23
2022/06/04 06:41:26;;;;;;;2.10;1.40;;;;;;;24.66;39.58;99445.29;104431;1281;75447;-23
2022/06/04 06:43:53;;;;;;;2.40;1.40;;;;;;;24.64;39.24;99441.41;104172;1280;394482;-23
2022/06/04 06:46:28;;;;;;;3.10;1.40;;;;;;;24.56;39.08;99442.25;104392;1280;63393;-23
2022/06/04 06:49:01;;;;;;;2.20;1.90;;;;;;;24.52;38.91;99437.63;104375;1281;74999;-23
2022/06/04 06:51:35;;;;;;;;;;;;;;;24.62;39.60;99434.30;104425;1281;76237;-22
2022/06/04 06:54:03;;;;;;;1.60;1.40;;;;;;;24.67;39.74;99431.13;104455;1280;75462;-23
2022/06/04 06:56:33;;;;;;;3.20;1.40;;;;;;;24.74;38.10;99427.23;104491;1281;63354;-22
2022/06/04 06:59:01;;;;;;;2.70;1.50;;;;;;;24.73;38.34;99425.52;104422;1281;61683;-23
2022/06/04 07:01:29;;;;;;;1.10;1.00;;;;;;;24.67;37.83;99426.38;104284;1280;75732;-23
2022/06/04 07:03:56;;;;;;;1.70;1.10;;;;;;;24.62;36.83;99422.83;104414;1281;75724;-23
2022/06/04 07:06:31;;;;;;;5.00;1.30;;;;;;;24.70;37.88;99418.27;104454;1280;74747;-23
2022/06/04 07:08:59;;;;;;;2.10;1.40;;;;;;;24.68;37.87;99412.33;104312;1280;63108;-23
2022/06/04 07:11:27;;;;;;;1.90;1.20;;;;;;;24.64;37.90;99411.60;103975;1280;62124;-23
2022/06/04 07:13:54;;;;;;;3.60;1.30;;;;;;;24.76;37.75;99407.73;104675;1275;74465;-23
2022/06/04 07:16:22;;;;;;;1.90;1.50;;;;;;;24.93;39.03;99409.33;104731;1274;76383;-23
2022/06/04 07:18:50;;;;;;;1.30;1.20;;;;;;;25.14;38.73;99405.80;104674;1274;75142;-23
2022/06/04 07:21:17;;;;;;;1.70;1.20;;;;;;;25.26;37.83;99402.38;104699;1275;62462;-23
2022/06/04 07:23:46;;;;;;;2.00;1.20;;;;;;;25.30;37.56;99404.85;104789;1274;62229;-24
2022/06/04 07:26:13;;;;;;;2.70;1.20;;;;;;;25.11;37.26;99408.39;104770;1274;75686;-23
2022/06/04 07:28:40;;;;;;;2.20;1.00;;;;;;;24.88;37.76;99408.77;104793;1274;77190;-23
2022/06/04 07:31:09;;;;;;;2.00;1.20;;;;;;;24.81;36.86;99407.27;104774;1274;75413;-23
2022/06/04 07:33:36;;;;;;;1.90;1.40;;;;;;;24.79;37.70;99405.81;104567;1274;61947;-23
2022/06/04 07:36:04;;;;;;;1.60;1.50;;;;;;;24.70;38.63;99409.26;104383;1277;62197;-23
2022/06/04 07:38:32;;;;;;;4.50;1.20;;;;;;;24.37;37.09;99408.39;104341;1274;74453;-23
2022/06/04 07:40:59;;;;;;;1.10;1.00;;;;;;;23.99;39.13;99408.79;104557;1274;77187;-23
2022/06/04 07:43:27;;;;;;;2.70;1.50;;;;;;;24.38;37.88;99402.08;104394;1274;75175;-22
2022/06/04 07:45:54;;;;;;;1.80;1.20;;;;;;;24.72;38.88;99398.02;104632;1274;63174;-22
2022/06/04 07:48:21;;;;;;;1.70;1.50;;;;;;;24.43;36.36;99391.73;104665;1274;63062;-23
2022/06/04 07:50:55;;;;;;;1.70;1.50;;;;;;;24.56;38.92;99394.41;104584;1274;74633;-23
2022/06/04 07:53:22;;;;;;;1.60;1.20;;;;;;;24.93;38.99;99391.95;104675;1274;77111;-23
2022/06/04 07:55:49;;;;;;;1.40;1.30;;;;;;;25.17;37.05;99387.25;104673;1274;74364;-23
2022/06/04 07:58:24;;;;;;;1.30;1.20;;;;;;;25.29;37.86;99389.89;104710;1274;63178;-22
2022/06/04 08:00:57;;;;;;;1.80;1.30;;;;;;;25.45;37.38;99390.07;104644;1274;61972;-23
2022/06/04 08:03:25;;;;;;;2.20;1.20;;;;;;;25.52;36.35;99387.45;104401;1277;75074;-23
2022/06/04 08:05:52;;;;;;;1.20;1.10;;;;;;;25.53;37.68;99385.32;104533;1274;76191;-22
2022/06/04 08:08:20;;;;;;;3.50;1.70;;;;;;;25.65;35.97;99384.58;104624;1274;74353;-23
2022/06/04 08:10:48;;;;;;;2.00;1.30;;;;;;;25.76;36.83;99383.70;104530;1274;62077;-23
2022/06/04 08:13:31;;;;;;;1.30;0.90;;;;;;;26.01;35.29;99380.48;104348;1277;63046;-23
2022/06/04 08:16:00;;;;;;;0.80;0.80;;;;;;;26.06;35.07;99372.86;104546;1274;75772;-23
2022/06/04 08:18:28;;;;;;;0.90;0.90;;;;;;;26.06;36.09;99367.46;104652;1274;77186;-23
2022/06/04 08:20:55;;;;;;;3.20;1.20;;;;;;;25.77;35.67;99366.80;104711;1274;75414;-23
2022/06/04 08:23:22;;;;;;;1.50;1.20;;;;;;;25.94;36.54;99365.93;104567;1274;62039;-23
2022/06/04 08:25:51;;;;;;;1.40;1.30;;;;;;;26.12;35.92;99362.91;104492;1277;61620;-23
2022/06/04 08:28:19;;;;;;;3.10;1.20;;;;;;;26.17;35.41;99366.52;104513;1274;73394;-23
2022/06/04 08:30:46;;;;;;;1.10;1.00;;;;;;;26.21;35.57;99364.23;104713;1274;77118;-23
2022/06/04 08:33:13;;;;;;;2.30;1.70;;;;;;;26.26;34.27;99366.73;104655;1277;75366;-23
2022/06/04 08:35:42;;;;;;;1.20;1.10;;;;;;;26.56;34.46;99363.63;104678;1274;63131;-23
2022/06/04 08:38:09;;;;;;;2.20;0.90;;;;;;;26.88;33.12;99360.39;104558;1274;62478;-23
2022/06/04 08:40:38;;;;;;;1.10;1.00;;;;;;;27.16;34.69;99360.39;104615;1274;75737;-23
2022/06/04 08:43:13;;;;;;;1.10;1.00;;;;;;;27.37;33.54;99360.89;104447;1274;77038;-23
2022/06/04 08:45:40;;;;;;;2.00;1.00;;;;;;;27.63;33.53;99354.06;104584;1274;74126;-23
2022/06/04 08:48:19;;;;;;;1.70;1.00;;;;;;;27.85;32.86;99350.98;104783;1274;63059;-23
2022/06/04 08:50:47;;;;;;;1.30;1.10;;;;;;;27.93;31.82;99347.11;104636;1274;63009;-23
2022/06/04 08:53:24;;;;;;;1.30;1.00;;;;;;;27.99;32.33;99349.81;104699;1274;75763;-23
2022/06/04 08:59:09;;;;;;;1.60;1.00;;;;;;;27.68;31.78;99347.44;104643;1274;75305;-23
2022/06/04 09:01:47;;;;;;;1.70;0.70;;;;;;;27.56;31.20;99343.39;104579;1274;61824;-23
2022/06/04 09:04:30;;;;;;;2.10;0.70;;;;;;;26.97;32.61;99342.15;104605;1277;61701;-23
2022/06/04 09:07:14;;;;;;;5.80;1.20;;;;;;;26.98;32.89;99338.90;104616;1274;74850;-23
2022/06/04 09:09:59;;;;;;;2.30;0.90;;;;;;;26.88;33.70;99343.14;104741;1274;75717;-23
2022/06/04 09:12:36;;;;;;;2.50;1.00;;;;;;;26.84;34.61;99336.44;104583;1274;75291;-23
2022/06/04 09:15:10;;;;;;;1.00;0.80;;;;;;;26.69;33.54;99340.40;104761;1274;62015;-23
2022/06/04 09:17:50;;;;;;;2.90;0.80;;;;;;;26.19;31.97;99339.47;104733;1274;61995;-23
2022/06/04 09:20:31;;;;;;;2.70;1.00;;;;;;;25.60;33.26;99336.70;104711;1274;75741;-23
2022/06/04 09:23:16;;;;;;;0.70;0.70;;;;;;;25.53;33.70;99334.39;104574;1274;76626;-23
2022/06/04 09:25:53;;;;;;;0.90;0.70;;;;;;;25.51;33.81;99328.48;104369;1274;75597;-23
2022/06/04 09:29:06;;;;;;;2.60;0.90;;;;;;;25.96;33.13;99325.81;104336;1274;62013;-23
2022/06/04 09:31:55;;;;;;;2.20;0.80;;;;;;;26.30;33.72;99324.23;104644;1274;61814;-23
2022/06/04 09:34:30;;;;;;;1.40;0.90;;;;;;;26.86;33.46;99316.92;104593;1274;74722;-23
2022/06/04 09:36:57;;;;;;;1.30;0.80;;;;;;;27.49;31.74;99311.52;104491;1274;77468;-23
2022/06/04 09:39:31;;;;;;;2.30;0.70;;;;;;;27.63;28.25;99307.45;104638;1274;75285;-24
2022/06/04 09:42:11;;;;;;;0.80;0.80;;;;;;;27.75;29.07;99306.50;104702;1275;63238;-23
2022/06/04 09:44:57;;;;;;;1.60;0.90;;;;;;;26.95;30.21;99299.98;104636;1274;62148;-24
2022/06/04 09:47:34;;;;;;;2.40;0.90;;;;;;;27.58;31.03;99296.91;104687;1274;75989;-24
2022/06/04 09:50:17;;;;;;;0.70;0.70;;;;;;;27.94;29.15;99285.15;104641;1275;76105;-24
2022/06/04 09:52:46;;;;;;;3.10;1.00;;;;;;;28.14;29.50;99281.17;104570;1277;75500;-24
2022/06/04 09:55:21;;;;;;;1.50;1.40;;;;;;;28.32;28.91;99281.54;104312;1275;62584;-24
2022/06/04 09:57:56;;;;;;;1.50;1.00;;;;;;;28.45;31.18;99277.85;104377;1275;62258;-24
2022/06/04 10:00:35;;;;;;;2.40;0.80;;;;;;;28.73;29.55;99281.47;104325;1275;75085;-24
2022/06/04 10:03:15;;;;;;;0.70;0.70;;;;;;;28.40;27.95;99278.86;104719;1274;77100;-24
2022/06/04 10:05:49;;;;;;;0.80;0.80;;;;;;;27.90;28.58;99272.27;104555;1274;75386;-24
2022/06/04 10:08:22;;;;;;;1.50;1.00;;;;;;;27.97;29.92;99271.65;104599;1276;63009;-24
2022/06/04 10:10:50;;;;;;;1.80;1.00;;;;;;;28.05;30.36;99273.20;104585;1275;61961;-24
2022/06/04 10:16:21;;;;;;;0.80;0.60;;;;;;;28.43;30.74;99272.39;104629;1274;75879;-24
2022/06/04 10:19:04;;;;;;;1.30;0.60;;;;;;;28.50;30.92;99277.17;104616;1274;75509;-24
2022/06/04 10:21:35;;;;;;;2.30;0.90;;;;;;;28.27;30.07;99277.69;104657;1275;61764;-24
2022/06/04 10:24:18;;;;;;;0.80;0.70;;;;;;;28.06;31.26;99279.16;104490;1274;63048;-24
2022/06/04 10:26:46;;;;;;;;;;;;;;;27.67;31.24;99275.04;104437;1275;74697;-24
2022/06/04 10:29:33;;;;;;;0.80;0.70;;;;;;;27.64;32.36;99274.64;104709;1274;76252;-24
2022/06/04 10:32:25;;;;;;;1.40;0.70;;;;;;;28.06;30.63;99269.54;104839;1274;74326;-23
2022/06/04 10:35:24;;;;;;;1.10;1.00;;;;;;;28.40;29.70;99267.73;104624;1274;62879;-25
2022/06/04 10:38:19;;;;;;;1.00;0.90;;;;;;;28.25;30.45;99262.71;104544;1274;61932;-23
2022/06/04 10:40:58;;;;;;;2.40;1.00;;;;;;;28.53;31.88;99259.08;104597;1276;74908;-23
2022/06/04 10:43:59;;;;;;;0.80;0.80;;;;;;;29.01;31.34;99255.16;104732;1274;77241;-23
2022/06/04 10:46:48;;;;;;;1.00;0.90;;;;;;;29.27;30.43;99246.41;104659;1274;75414;-23
2022/06/04 10:49:37;;;;;;;1.00;0.80;;;;;;;28.93;29.40;99246.17;104704;1274;63065;-23
2022/06/04 10:52:16;;;;;;;2.10;0.80;;;;;;;28.05;29.21;99248.43;104673;1274;63433;-25
2022/06/04 10:54:53;;;;;;;1.10;0.80;;;;;;;27.44;31.69;99247.77;104836;1273;76702;-23
2022/06/04 10:57:29;;;;;;;0.70;0.70;;;;;;;27.79;31.61;99241.87;104647;1274;76789;-23
2022/06/04 11:00:18;;;;;;;3.60;0.90;;;;;;;28.14;31.71;99235.18;104716;1274;75376;-23
2022/06/04 11:02:55;;;;;;;1.40;0.70;;;;;;;28.12;30.79;99229.89;104694;1274;63151;-24
2022/06/04 11:05:37;;;;;;;3.40;0.80;;;;;;;27.19;30.69;99227.98;104653;1274;61947;-24
2022/06/04 11:08:18;;;;;;;1.70;0.80;;;;;;;26.08;32.38;99230.56;104663;1274;75493;-24
2022/06/04 11:10:51;;;;;;;1.90;0.90;;;;;;;25.95;33.25;99224.46;104746;1274;77146;-24
2022/06/04 11:13:26;;;;;;;1.50;0.70;;;;;;;25.90;33.96;99226.53;104697;1274;75686;-24
2022/06/04 11:16:12;;;;;;;3.60;0.90;;;;;;;25.74;32.12;99220.13;104667;1274;62150;-24
2022/06/04 11:18:46;;;;;;;1.00;0.90;;;;;;;25.67;32.03;99216.25;104782;1274;63106;-24
2022/06/04 11:21:25;;;;;;;1.00;0.90;;;;;;;25.57;33.92;99212.77;104524;1274;76379;-25
2022/06/04 11:24:13;;;;;;;1.00;0.80;;;;;;;25.55;33.81;99216.04;104683;1274;76813;-24
2022/06/04 11:26:44;;;;;;;3.20;1.00;;;;;;;25.50;33.36;99217.48;104560;1274;75480;-25
2022/06/04 11:29:12;;;;;;;1.10;1.00;;;;;;;25.45;33.95;99216.79;104651;1274;62793;-24
2022/06/04 11:31:48;;;;;;;1.50;1.00;;;;;;;25.13;34.50;99215.06;104640;1274;62176;-25
2022/06/04 11:34:19;;;;;;;1.90;0.80;;;;;;;25.18;33.09;99212.02;104519;1274;77043;-24
2022/06/04 11:37:17;;;;;;;2.10;1.00;;;;;;;24.90;34.03;99209.16;104715;1274;75966;-24
2022/06/04 11:40:08;;;;;;;1.40;0.90;;;;;;;25.09;34.99;99209.77;104756;1273;75557;-24
2022/06/04 11:43:10;;;;;;;0.90;0.80;;;;;;;25.32;35.18;99209.28;104696;1274;63091;-24
2022/06/04 11:45:53;;;;;;;1.00;0.90;;;;;;;25.58;35.68;99203.77;104769;1274;62759;-24
2022/06/04 11:48:26;;;;;;;2.40;1.20;;;;;;;25.71;36.21;99201.65;104853;1274;75462;-25
2022/06/04 11:51:12;;;;;;;2.20;0.90;;;;;;;25.90;35.01;99201.86;104650;1274;77077;-25
2022/06/04 11:54:11;;;;;;;2.40;0.80;;;;;;;25.68;32.85;99196.36;104579;1275;75371;-24
2022/06/04 11:56:47;;;;;;;1.00;0.90;;;;;;;25.75;34.32;99199.93;104893;1274;61762;-24
2022/06/04 11:59:27;;;;;;;2.10;1.30;;;;;;;25.99;33.40;99200.95;104715;1274;61553;-24
2022/06/04 12:01:59;;;;;;;1.20;0.80;;;;;;;26.20;35.27;99193.45;104686;1273;75631;-24
2022/06/04 12:04:41;;;;;;;1.20;0.90;;;;;;;26.39;34.40;99190.67;104735;1274;77249;-24